KEYE

Details ICAO KEYE
Name Eagle Creek Airpark
Region United States
Timezone America/Indiana/Indianapolis (UTC-5.0)
Plans Departing 15
Arriving 8
Stats Elevation 823 ft / 251 m (AMSL)
Location 39.830738° -86.294377°
Runways 1
Magnetic Variation 4.646° W
Sunrise 2017-12-16 13:01:36 UTC / 2017-12-16 08:01:36 Local
Sunset 2017-12-16 22:23:00 UTC / 2017-12-16 17:23:00 Local
Advertisement - Login to hide

Runways

ID Width Length Bearing (true) Bearing (mag) Surface Threshold Offset Overrun Length
03 75 ft / 23 m 4,204 ft / 1,281 m 25.45° 30.10° Asphalt 0 ft / 0 m 0 ft / 0 m
21 75 ft / 23 m 4,204 ft / 1,281 m 205.45° 210.10° Asphalt 0 ft / 0 m 0 ft / 0 m

Approach Navaids

Runway Type Ident Frequency Range Bearing (true) Bearing (mag) Slope Elevation
21 Localiser IEYE 111.50 MHz 18 nm / 33 km 205.45° 210.10° - 823 ft / 251 m (AMSL)

Map

Weather


0- 5 10 15 20 25 30 35+ Temperature / ° C

Clouds and Precipitation
Forecast for 2017-12-16 18:00 UTC. Updated 2 hours ago

Ground ~20,000 ft ~40,000 ft Winds

METAR

KEYE 161753Z AUTO 23010G19KT 10SM CLR 08/M03 A2998 RMK AO2 SLP158 T00831028 10089 20000 58004

TAF

Not found

Frequencies

Recorded 121.57 MHz ASOS
Unicom 122.80 MHz CTAF/UNICOM
Approach 119.05 MHz INDIANAPOLIS APP/DEP
Recorded 126.42 MHz ASOS
Clearance 128.60 MHz CLNC DEL
Warning: Do not use this data for real-world aviation or navigation. No guarantee of current accuracy is given.